TAF MGRT
METAR MGRT
MGRT 082300Z 25004KT 9999 FEW022 SCT080 BKN200 30/22 Q1013 A2991 VOL. SANTA MARIA Y SANTIAGUITO EN ACTIVIDAD=
MGRT 082100Z 25006KT 9999 FEW020 SCT200 33/22 Q1013 A2991 VOL. SANTA MARIA Y SANTIAGUITO EN ACTIVIDAD=
MGRT 082000Z 23006KT 7000 FEW020 SCT070 34/21 Q1013 A2991 FU VOL. SANTA MARIA Y SANTIAGUITO EN ACTIVIDAD=
MGRT 081900Z 23004KT 7000 FEW018 SCT200 34/21 Q1014 A2994 FU VOL. SANTA MARIA Y SANTIAGUITO EN ACTIVIDAD=
MGRT 081800Z 18006KT 7000 SCT200 33/22 Q1015 A2997 FU VOL. SANTA MARIA Y SANTIAGUITO EN ACTIVIDAD=
WC MGRT
WS MGRT
WV MGRT